createdAt,value
2018-09-29T00:01:44.841Z,12.73
2018-09-29T00:04:13.768Z,15.47
2018-09-29T00:06:42.659Z,12.97
2018-09-29T00:09:12.639Z,14.27
2018-09-29T00:11:41.712Z,11.80
2018-09-29T00:14:11.462Z,12.13
2018-09-29T00:16:40.494Z,17.03
2018-09-29T00:19:09.351Z,15.90
2018-09-29T00:21:38.241Z,11.90
2018-09-29T00:24:07.080Z,12.07
2018-09-29T00:26:36.024Z,8.40
2018-09-29T00:29:04.929Z,10.50
2018-09-29T00:31:33.824Z,13.03
2018-09-29T00:34:02.746Z,11.20
2018-09-29T00:36:31.613Z,11.17
2018-09-29T00:39:00.494Z,10.87
2018-09-29T00:41:29.445Z,18.43
2018-09-29T00:43:58.307Z,14.50
2018-09-29T00:46:27.207Z,11.17
2018-09-29T00:48:56.145Z,13.67
2018-09-29T00:51:24.991Z,13.13
2018-09-29T00:53:53.867Z,14.40
2018-09-29T00:56:22.756Z,19.17
2018-09-29T00:58:51.648Z,18.67
2018-09-29T01:01:20.548Z,16.13
2018-09-29T01:03:49.435Z,10.07
2018-09-29T01:06:18.325Z,13.47
2018-09-29T01:08:47.220Z,12.30
2018-09-29T01:11:16.100Z,10.80
2018-09-29T01:13:45.006Z,12.37
2018-09-29T01:16:13.884Z,11.90
2018-09-29T01:18:42.797Z,15.40
2018-09-29T01:21:11.721Z,15.63
2018-09-29T01:23:40.631Z,12.00
2018-09-29T01:26:09.549Z,12.10
2018-09-29T01:28:38.457Z,15.10
2018-09-29T01:31:07.927Z,17.90
2018-09-29T01:33:36.884Z,15.73
2018-09-29T01:36:05.828Z,14.67
2018-09-29T01:38:34.700Z,18.70
2018-09-29T01:41:03.644Z,13.50
2018-09-29T01:43:32.574Z,15.27
2018-09-29T01:46:01.422Z,15.23
2018-09-29T01:48:30.299Z,14.30
2018-09-29T01:50:59.252Z,12.80
2018-09-29T01:53:28.126Z,13.07
2018-09-29T01:55:56.968Z,12.63
2018-09-29T01:58:25.876Z,14.33
2018-09-29T02:00:54.738Z,17.30
2018-09-29T02:03:23.612Z,14.93
2018-09-29T02:05:52.519Z,14.07
2018-09-29T02:08:21.486Z,16.03
2018-09-29T02:10:50.426Z,13.73
2018-09-29T02:13:19.328Z,16.87
2018-09-29T02:15:48.169Z,15.80
2018-09-29T02:18:17.028Z,13.77
2018-09-29T02:20:45.915Z,12.60
2018-09-29T02:23:14.763Z,13.27
2018-09-29T02:25:43.644Z,15.27
2018-09-29T02:28:13.518Z,17.70
2018-09-29T02:30:42.408Z,15.63
2018-09-29T02:33:11.308Z,17.57
2018-09-29T02:35:40.184Z,15.63
2018-09-29T02:38:09.031Z,15.53
2018-09-29T02:40:37.891Z,14.80
2018-09-29T02:43:06.937Z,13.87
2018-09-29T02:45:35.805Z,15.13
2018-09-29T02:48:04.686Z,15.83
2018-09-29T02:50:33.608Z,17.47
2018-09-29T02:53:02.540Z,16.60
2018-09-29T02:55:31.387Z,17.63
2018-09-29T02:58:00.285Z,15.17
2018-09-29T03:00:29.141Z,17.53
2018-09-29T03:02:58.035Z,14.27
2018-09-29T03:05:26.971Z,15.73
2018-09-29T03:07:55.893Z,15.83
2018-09-29T03:10:24.756Z,17.13
2018-09-29T03:12:53.651Z,16.47
2018-09-29T03:15:22.558Z,15.50
2018-09-29T03:17:51.580Z,14.87
2018-09-29T03:20:20.573Z,18.00
2018-09-29T03:22:49.459Z,17.40
2018-09-29T03:25:18.374Z,13.47
2018-09-29T03:27:47.260Z,16.13
2018-09-29T03:30:16.146Z,15.60
2018-09-29T03:32:45.054Z,13.13
2018-09-29T03:35:13.978Z,17.17
2018-09-29T03:37:42.817Z,15.60
2018-09-29T03:40:11.764Z,14.67
2018-09-29T03:42:40.647Z,13.93
2018-09-29T03:45:09.536Z,19.87
2018-09-29T03:47:38.449Z,20.73
2018-09-29T03:50:07.335Z,23.13
2018-09-29T03:52:36.214Z,20.40
2018-09-29T03:55:05.146Z,19.60
2018-09-29T03:57:34.048Z,18.27
2018-09-29T04:00:03.046Z,16.97
2018-09-29T04:02:31.925Z,15.77
2018-09-29T04:05:00.829Z,16.07
2018-09-29T04:07:29.760Z,17.80
2018-09-29T04:09:58.704Z,16.93
2018-09-29T04:12:27.568Z,15.07
2018-09-29T04:14:56.455Z,14.70
2018-09-29T04:17:25.343Z,20.73
2018-09-29T04:19:54.259Z,19.50
2018-09-29T04:22:23.127Z,17.50
2018-09-29T04:24:52.023Z,20.37
2018-09-29T04:27:20.930Z,19.87
2018-09-29T04:29:49.820Z,19.60
2018-09-29T04:32:18.692Z,20.27
2018-09-29T04:34:47.595Z,24.40
2018-09-29T04:37:16.495Z,34.47
2018-09-29T04:39:45.359Z,29.23
2018-09-29T04:42:14.273Z,32.30
2018-09-29T04:44:43.153Z,46.37
2018-09-29T04:47:12.012Z,42.53
2018-09-29T04:49:40.929Z,42.00
2018-09-29T04:52:09.836Z,38.37
2018-09-29T04:54:38.740Z,32.80
2018-09-29T04:57:07.695Z,33.73
2018-09-29T04:59:36.606Z,28.93
2018-09-29T05:02:05.615Z,27.93
2018-09-29T05:04:34.503Z,35.87
2018-09-29T05:07:03.395Z,31.60
2018-09-29T05:09:32.310Z,24.67
2018-09-29T05:12:01.189Z,27.87
2018-09-29T05:14:30.110Z,27.17
2018-09-29T05:16:59.000Z,25.87
2018-09-29T05:19:27.852Z,26.10
2018-09-29T05:21:56.863Z,24.87
2018-09-29T05:24:25.745Z,21.87
2018-09-29T05:26:54.620Z,19.47
2018-09-29T05:29:23.555Z,25.67
2018-09-29T05:31:52.469Z,22.47
2018-09-29T05:34:21.355Z,21.10
2018-09-29T05:36:50.253Z,20.17
2018-09-29T05:39:19.278Z,19.17
2018-09-29T05:41:48.236Z,20.57
2018-09-29T05:44:17.222Z,17.00
2018-09-29T05:46:46.148Z,16.13
2018-09-29T05:49:15.049Z,16.90
2018-09-29T05:51:44.129Z,17.13
2018-09-29T05:54:13.061Z,15.73
2018-09-29T05:56:44.449Z,16.77
2018-09-29T05:59:13.425Z,14.73
2018-09-29T06:01:42.379Z,17.27
2018-09-29T06:04:11.743Z,13.87
2018-09-29T06:06:40.644Z,22.33
2018-09-29T06:09:10.073Z,14.93
2018-09-29T06:11:39.053Z,14.30
2018-09-29T06:14:08.054Z,14.23
2018-09-29T06:16:37.037Z,12.27
2018-09-29T06:19:06.145Z,14.20
2018-09-29T06:21:35.026Z,15.10
2018-09-29T06:24:04.548Z,13.37
2018-09-29T06:26:33.473Z,11.80
2018-09-29T06:29:02.373Z,13.30
2018-09-29T06:31:31.425Z,11.20
2018-09-29T06:34:00.309Z,9.73
2018-09-29T06:36:29.198Z,14.77
2018-09-29T06:38:58.183Z,10.97
2018-09-29T06:41:27.124Z,12.10
2018-09-29T06:43:56.057Z,9.70
2018-09-29T06:46:25.060Z,13.87
2018-09-29T06:48:54.084Z,12.70
2018-09-29T06:51:23.057Z,11.63
2018-09-29T06:53:51.992Z,10.40
2018-09-29T06:56:21.085Z,15.07
2018-09-29T06:58:50.041Z,12.70
2018-09-29T07:01:19.084Z,13.20
2018-09-29T07:03:48.256Z,11.17
2018-09-29T07:06:17.275Z,9.00
2018-09-29T07:08:46.249Z,9.87
2018-09-29T07:11:15.204Z,8.53
2018-09-29T07:13:44.236Z,8.30
2018-09-29T07:16:13.189Z,8.90
2018-09-29T07:18:42.088Z,7.77
2018-09-29T07:21:10.991Z,7.97
2018-09-29T07:23:39.956Z,10.90
2018-09-29T07:26:09.015Z,7.07
2018-09-29T07:28:37.951Z,8.53
2018-09-29T07:31:06.949Z,5.43
2018-09-29T07:33:36.068Z,9.17
2018-09-29T07:36:05.435Z,6.53
2018-09-29T07:38:34.421Z,7.37
2018-09-29T07:41:03.397Z,8.50
2018-09-29T07:43:32.382Z,10.00
2018-09-29T07:46:01.408Z,7.43
2018-09-29T07:48:30.371Z,5.43
2018-09-29T07:50:59.415Z,7.53
2018-09-29T07:53:28.451Z,7.37
2018-09-29T07:55:57.504Z,7.23
2018-09-29T07:58:26.456Z,14.93
2018-09-29T08:00:55.344Z,9.53
2018-09-29T08:03:24.306Z,7.47
2018-09-29T08:05:53.240Z,6.70
2018-09-29T08:08:22.245Z,5.20
2018-09-29T08:10:51.347Z,5.60
2018-09-29T08:13:20.349Z,6.03
2018-09-29T08:15:49.287Z,8.00
2018-09-29T08:18:18.207Z,5.23
2018-09-29T08:20:47.229Z,7.17
2018-09-29T08:23:16.109Z,5.13
2018-09-29T08:25:44.979Z,6.97
2018-09-29T08:28:13.915Z,5.30
2018-09-29T08:30:42.891Z,5.87
2018-09-29T08:33:11.865Z,4.87
2018-09-29T08:35:40.833Z,5.67
2018-09-29T08:38:09.821Z,5.73
2018-09-29T08:40:38.750Z,4.87
2018-09-29T08:43:07.746Z,5.93
2018-09-29T08:45:36.677Z,4.40
2018-09-29T08:48:05.928Z,3.93
2018-09-29T08:50:34.825Z,4.37
2018-09-29T08:53:03.836Z,3.03
2018-09-29T08:55:32.789Z,6.30
2018-09-29T08:58:01.689Z,4.47
2018-09-29T09:00:30.603Z,4.20
2018-09-29T09:02:59.997Z,2.80
2018-09-29T09:05:29.547Z,5.87
2018-09-29T09:07:58.501Z,1.77
2018-09-29T09:10:27.831Z,3.83
2018-09-29T09:12:57.479Z,4.17
2018-09-29T09:15:26.777Z,2.73
2018-09-29T09:17:55.713Z,5.67
2018-09-29T09:20:24.692Z,1.40
2018-09-29T09:22:53.722Z,3.17
2018-09-29T09:25:22.676Z,1.40
2018-09-29T09:27:51.773Z,2.23
2018-09-29T09:30:20.705Z,2.20
2018-09-29T09:32:49.567Z,3.93
2018-09-29T09:35:18.549Z,4.90
2018-09-29T09:37:47.442Z,2.23
2018-09-29T09:40:16.533Z,3.10
2018-09-29T09:42:45.473Z,1.37
2018-09-29T09:45:14.357Z,1.60
2018-09-29T09:47:43.742Z,1.57
2018-09-29T09:50:12.711Z,4.57
2018-09-29T09:52:41.677Z,1.67
2018-09-29T09:55:10.580Z,1.27
2018-09-29T09:57:39.577Z,2.63
2018-09-29T10:00:08.635Z,2.30
2018-09-29T10:02:43.460Z,1.50
2018-09-29T10:05:12.428Z,2.47
2018-09-29T10:07:41.309Z,1.77
2018-09-29T10:10:10.192Z,1.00
2018-09-29T10:12:39.106Z,2.00
2018-09-29T10:15:08.175Z,0.97
2018-09-29T10:17:37.233Z,3.27
2018-09-29T10:20:06.463Z,4.80
2018-09-29T10:22:35.442Z,1.77
2018-09-29T10:25:04.476Z,1.90
2018-09-29T10:27:33.523Z,4.00
2018-09-29T10:30:02.475Z,4.17
2018-09-29T10:32:31.394Z,1.90
2018-09-29T10:35:00.402Z,1.10
2018-09-29T10:37:29.446Z,3.37
2018-09-29T10:39:58.382Z,1.37
2018-09-29T10:42:27.416Z,1.67
2018-09-29T10:44:56.328Z,1.07
2018-09-29T10:47:25.251Z,1.30
2018-09-29T10:49:54.271Z,1.47
2018-09-29T10:52:23.189Z,1.70
2018-09-29T10:54:52.065Z,1.87
2018-09-29T10:57:20.988Z,3.30
2018-09-29T10:59:49.880Z,1.40
2018-09-29T11:02:18.841Z,4.43
2018-09-29T11:04:47.750Z,0.63
2018-09-29T11:07:16.712Z,2.63
2018-09-29T11:09:45.624Z,0.60
2018-09-29T11:12:14.604Z,1.63
2018-09-29T11:14:43.977Z,2.17
2018-09-29T11:17:13.107Z,2.73
2018-09-29T11:19:42.054Z,1.03
2018-09-29T11:22:11.061Z,1.23
2018-09-29T11:24:40.021Z,8.27
2018-09-29T11:27:08.977Z,2.57
2018-09-29T11:29:38.073Z,2.87
2018-09-29T11:32:06.956Z,5.67
2018-09-29T11:34:36.057Z,1.90
2018-09-29T11:37:05.100Z,0.80
2018-09-29T11:39:34.027Z,2.13
2018-09-29T11:42:03.501Z,1.43
2018-09-29T11:44:32.500Z,1.20
2018-09-29T11:47:01.530Z,1.73
2018-09-29T11:49:30.654Z,0.97
2018-09-29T11:51:59.927Z,1.93
2018-09-29T11:54:29.653Z,1.57
2018-09-29T11:56:58.643Z,1.33
2018-09-29T11:59:27.557Z,1.40
2018-09-29T12:01:56.695Z,1.60
2018-09-29T12:04:25.604Z,1.00
2018-09-29T12:06:54.517Z,2.50
2018-09-29T12:09:23.486Z,1.10
2018-09-29T12:11:53.356Z,1.40
2018-09-29T12:14:22.283Z,1.10
2018-09-29T12:16:51.247Z,2.60
2018-09-29T12:19:20.223Z,1.13
2018-09-29T12:21:49.136Z,2.87
2018-09-29T12:24:18.069Z,1.00
2018-09-29T12:26:47.046Z,1.50
2018-09-29T12:29:16.050Z,2.20
2018-09-29T12:31:44.999Z,2.10
2018-09-29T12:34:13.919Z,2.20
2018-09-29T12:36:42.840Z,1.20
2018-09-29T12:39:12.141Z,0.73
2018-09-29T12:41:41.327Z,2.27
2018-09-29T12:44:10.299Z,1.73
2018-09-29T12:46:39.188Z,2.03
2018-09-29T12:49:08.089Z,1.20
2018-09-29T12:51:37.128Z,2.63
2018-09-29T12:54:06.011Z,1.17
2018-09-29T12:56:34.985Z,4.60
2018-09-29T12:59:04.076Z,3.17
2018-09-29T13:01:33.128Z,7.77
2018-09-29T13:04:01.993Z,7.13
2018-09-29T13:06:30.860Z,2.03
2018-09-29T13:08:59.836Z,5.10
2018-09-29T13:11:28.858Z,4.20
2018-09-29T13:13:57.818Z,4.70
2018-09-29T13:16:27.704Z,1.47
2018-09-29T13:18:56.669Z,1.83
2018-09-29T13:21:25.559Z,1.20
2018-09-29T13:23:54.644Z,1.30
2018-09-29T13:26:24.787Z,1.60
2018-09-29T13:28:54.462Z,2.77
2018-09-29T13:31:23.362Z,0.80
2018-09-29T13:33:52.399Z,1.80
2018-09-29T13:36:21.300Z,2.20
2018-09-29T13:38:50.739Z,1.97
2018-09-29T13:41:19.823Z,1.10
2018-09-29T13:43:48.717Z,4.63
2018-09-29T13:46:18.645Z,1.27
2018-09-29T13:48:47.560Z,1.57
2018-09-29T13:51:16.497Z,2.87
2018-09-29T13:53:45.459Z,3.90
2018-09-29T13:56:14.370Z,2.27
2018-09-29T13:58:43.314Z,6.37
2018-09-29T14:01:12.242Z,3.23
2018-09-29T14:03:41.197Z,3.77
2018-09-29T14:06:10.120Z,7.50
2018-09-29T14:08:39.156Z,9.33
2018-09-29T14:11:07.988Z,8.27
2018-09-29T14:13:36.971Z,14.77
2018-09-29T14:16:06.628Z,15.87
2018-09-29T14:18:35.520Z,15.00
2018-09-29T14:21:04.468Z,14.67
2018-09-29T14:23:33.389Z,17.77
2018-09-29T14:26:02.659Z,9.30
2018-09-29T14:28:31.520Z,6.27
2018-09-29T14:31:00.459Z,12.00
2018-09-29T14:33:29.434Z,4.60
2018-09-29T14:35:58.326Z,2.40
2018-09-29T14:38:27.203Z,4.40
2018-09-29T14:40:56.152Z,2.83
2018-09-29T14:43:25.094Z,4.23
2018-09-29T14:45:54.048Z,13.93
2018-09-29T14:48:23.075Z,9.50
2018-09-29T14:50:52.361Z,7.27
2018-09-29T14:53:21.301Z,6.00
2018-09-29T14:55:50.306Z,3.60
2018-09-29T14:58:19.227Z,4.13
2018-09-29T15:00:48.123Z,2.83
2018-09-29T15:03:17.059Z,3.03
2018-09-29T15:05:46.070Z,2.47
2018-09-29T15:08:17.477Z,5.43
2018-09-29T15:10:49.064Z,10.20
2018-09-29T15:13:18.040Z,7.87
2018-09-29T15:15:46.925Z,11.43
2018-09-29T15:18:15.843Z,8.37
2018-09-29T15:20:44.788Z,5.30
2018-09-29T15:23:13.688Z,7.53
2018-09-29T15:25:42.565Z,3.37
2018-09-29T15:28:11.530Z,8.90
2018-09-29T15:30:42.236Z,9.43
2018-09-29T15:33:11.125Z,4.70
2018-09-29T15:35:40.145Z,2.70
2018-09-29T15:38:09.174Z,6.50
2018-09-29T15:40:38.133Z,4.00
2018-09-29T15:43:07.132Z,4.37
2018-09-29T15:45:37.018Z,3.83
2018-09-29T15:48:06.155Z,7.63
2018-09-29T15:50:35.164Z,8.97
2018-09-29T15:53:04.158Z,12.13
2018-09-29T15:55:33.245Z,16.27
2018-09-29T15:58:02.181Z,17.87
2018-09-29T16:00:31.277Z,10.03
2018-09-29T16:03:00.181Z,11.50
2018-09-29T16:05:29.091Z,24.93
2018-09-29T16:07:58.035Z,36.20
2018-09-29T16:10:27.079Z,10.83
2018-09-29T16:12:55.991Z,14.17
2018-09-29T16:15:25.001Z,15.57
2018-09-29T16:17:53.933Z,24.40
2018-09-29T16:20:22.842Z,16.17
2018-09-29T16:22:51.863Z,11.83
2018-09-29T16:25:20.763Z,11.40
2018-09-29T16:27:49.661Z,10.33
2018-09-29T16:30:18.749Z,10.40
2018-09-29T16:32:47.737Z,11.43
2018-09-29T16:35:16.681Z,14.83
2018-09-29T16:37:45.629Z,13.30
2018-09-29T16:40:14.588Z,17.97
2018-09-29T16:42:43.593Z,25.07
2018-09-29T16:45:12.532Z,25.07
2018-09-29T16:47:41.430Z,21.40
2018-09-29T16:50:11.301Z,19.63
2018-09-29T16:52:40.348Z,21.80
2018-09-29T16:55:09.281Z,19.67
2018-09-29T16:57:38.139Z,19.13
2018-09-29T17:00:07.159Z,18.20
2018-09-29T17:02:36.038Z,17.97
2018-09-29T17:05:04.970Z,14.67
2018-09-29T17:07:33.961Z,16.70
2018-09-29T17:10:02.969Z,15.83
2018-09-29T17:12:32.584Z,22.97
2018-09-29T17:15:01.525Z,26.53
2018-09-29T17:17:30.407Z,28.37
2018-09-29T17:19:59.362Z,34.07
2018-09-29T17:22:28.319Z,42.37
2018-09-29T17:24:57.211Z,43.70
2018-09-29T17:27:27.206Z,45.50
2018-09-29T17:29:57.686Z,52.87
2018-09-29T17:32:26.664Z,54.50
2018-09-29T17:34:55.544Z,65.33
2018-09-29T17:37:24.439Z,60.53
2018-09-29T17:39:53.515Z,68.03
2018-09-29T17:42:22.523Z,61.50
2018-09-29T17:44:51.531Z,72.03
2018-09-29T17:47:20.479Z,72.27
2018-09-29T17:49:49.555Z,80.03
2018-09-29T17:52:18.551Z,73.57
2018-09-29T17:54:47.480Z,69.33
2018-09-29T17:57:16.584Z,76.77
2018-09-29T17:59:45.571Z,73.03
2018-09-29T18:02:14.601Z,81.17
2018-09-29T18:04:44.189Z,74.90
2018-09-29T18:07:13.188Z,71.77
2018-09-29T18:09:43.485Z,69.10
2018-09-29T18:12:12.429Z,75.80
2018-09-29T18:14:41.447Z,83.93
2018-09-29T18:17:10.355Z,89.83
2018-09-29T18:19:39.436Z,92.30
2018-09-29T18:22:09.310Z,90.30
2018-09-29T18:24:38.427Z,93.77
2018-09-29T18:27:07.441Z,97.43
2018-09-29T18:29:36.478Z,88.00
2018-09-29T18:32:05.384Z,102.27
2018-09-29T18:34:34.281Z,124.23
2018-09-29T18:37:03.548Z,115.60
2018-09-29T18:39:32.525Z,109.97
2018-09-29T18:42:01.723Z,116.17
2018-09-29T18:44:30.972Z,119.77
2018-09-29T18:46:59.943Z,126.37
2018-09-29T18:49:28.861Z,113.60
2018-09-29T18:51:57.852Z,112.77
2018-09-29T18:54:26.761Z,114.87
2018-09-29T18:56:56.242Z,108.73
2018-09-29T18:59:25.267Z,103.67
2018-09-29T19:01:54.461Z,114.33
2018-09-29T19:04:23.423Z,98.83
2018-09-29T19:06:53.281Z,104.77
2018-09-29T19:09:22.966Z,105.63
2018-09-29T19:11:51.905Z,111.30
2018-09-29T19:14:21.858Z,110.47
2018-09-29T19:16:50.758Z,99.03
2018-09-29T19:19:19.645Z,87.97
2018-09-29T19:21:48.765Z,83.20
2018-09-29T19:24:17.712Z,78.50
2018-09-29T19:26:46.702Z,77.63
2018-09-29T19:29:15.732Z,72.13
2018-09-29T19:31:44.781Z,71.27
2018-09-29T19:34:14.163Z,73.20
2018-09-29T19:36:43.212Z,78.90
2018-09-29T19:39:12.289Z,88.33
2018-09-29T19:41:41.245Z,96.70
2018-09-29T19:44:10.200Z,92.73
2018-09-29T19:46:39.107Z,91.90
2018-09-29T19:49:08.100Z,93.83
2018-09-29T19:51:37.047Z,105.73
2018-09-29T19:54:05.953Z,129.17
2018-09-29T19:56:35.524Z,118.90
2018-09-29T19:59:06.006Z,118.20
2018-09-29T20:01:35.011Z,112.20
2018-09-29T20:04:04.214Z,102.50
2018-09-29T20:06:33.271Z,109.13
2018-09-29T20:09:02.299Z,97.33
2018-09-29T20:11:31.241Z,93.10
2018-09-29T20:14:00.141Z,93.30
2018-09-29T20:16:29.080Z,86.53
2018-09-29T20:18:58.949Z,87.27
2018-09-29T20:21:28.301Z,93.97
2018-09-29T20:23:57.278Z,95.53
2018-09-29T20:26:26.207Z,96.83
2018-09-29T20:28:55.127Z,102.77
2018-09-29T20:31:24.043Z,102.70
2018-09-29T20:33:53.046Z,100.20
2018-09-29T20:36:22.028Z,107.47
2018-09-29T20:38:50.979Z,105.60
2018-09-29T20:41:19.954Z,105.53
2018-09-29T20:43:48.848Z,103.00
2018-09-29T20:46:17.810Z,100.77
2018-09-29T20:48:46.695Z,98.33
2018-09-29T20:51:15.635Z,98.50
2018-09-29T20:53:45.162Z,98.53
2018-09-29T20:56:14.065Z,95.47
2018-09-29T20:58:43.020Z,109.23
2018-09-29T21:01:12.187Z,100.57
2018-09-29T21:03:41.051Z,94.03
2018-09-29T21:06:09.911Z,104.50
2018-09-29T21:08:38.823Z,94.33
2018-09-29T21:11:07.811Z,106.20
2018-09-29T21:13:36.818Z,102.03
2018-09-29T21:16:05.747Z,105.17
2018-09-29T21:18:34.692Z,98.87
2018-09-29T21:21:03.712Z,98.87
2018-09-29T21:23:33.016Z,99.47
2018-09-29T21:26:03.337Z,97.53
2018-09-29T21:28:33.395Z,98.10
2018-09-29T21:31:02.451Z,93.03
2018-09-29T21:33:31.460Z,96.93
2018-09-29T21:36:00.375Z,102.73
2018-09-29T21:38:29.387Z,104.50
2018-09-29T21:40:58.376Z,98.13
2018-09-29T21:43:27.351Z,103.47
2018-09-29T21:45:56.441Z,106.00
2018-09-29T21:48:25.497Z,107.83
2018-09-29T21:50:54.475Z,113.77
2018-09-29T21:53:23.466Z,114.80
2018-09-29T21:55:52.521Z,114.07
2018-09-29T21:58:21.488Z,115.73
2018-09-29T22:00:50.515Z,113.87
2018-09-29T22:03:19.532Z,110.10
2018-09-29T22:05:48.575Z,113.13
2018-09-29T22:08:17.604Z,104.37
2018-09-29T22:10:46.625Z,106.77
2018-09-29T22:13:15.667Z,107.57
2018-09-29T22:15:44.673Z,111.07
2018-09-29T22:18:13.649Z,108.87
2018-09-29T22:20:42.657Z,110.03
2018-09-29T22:23:11.730Z,109.80
2018-09-29T22:25:40.770Z,110.80
2018-09-29T22:28:10.786Z,115.77
2018-09-29T22:30:39.791Z,111.07
2018-09-29T22:33:08.815Z,116.53
2018-09-29T22:35:37.749Z,116.73
2018-09-29T22:38:06.917Z,116.57
2018-09-29T22:40:35.998Z,104.03
2018-09-29T22:43:04.959Z,90.80
2018-09-29T22:45:33.929Z,96.50
2018-09-29T22:48:02.899Z,100.23
2018-09-29T22:50:31.937Z,88.80
2018-09-29T22:53:00.902Z,83.47
2018-09-29T22:55:29.965Z,85.63
2018-09-29T22:57:58.953Z,98.77
2018-09-29T23:00:27.941Z,93.43
2018-09-29T23:02:56.936Z,95.30
2018-09-29T23:05:25.931Z,89.80
2018-09-29T23:07:54.895Z,85.87
2018-09-29T23:10:23.893Z,84.30
2018-09-29T23:12:52.906Z,79.23
2018-09-29T23:15:21.851Z,83.50
2018-09-29T23:17:50.842Z,81.87
2018-09-29T23:20:19.773Z,84.20
2018-09-29T23:22:48.689Z,85.90
2018-09-29T23:25:17.625Z,87.03
2018-09-29T23:27:46.709Z,83.90
2018-09-29T23:30:16.081Z,87.70
2018-09-29T23:32:45.157Z,83.13
2018-09-29T23:35:14.147Z,83.93
2018-09-29T23:37:43.110Z,84.43
2018-09-29T23:40:12.040Z,89.17
2018-09-29T23:42:41.076Z,85.73
2018-09-29T23:45:10.004Z,83.57
2018-09-29T23:47:38.921Z,75.67
2018-09-29T23:50:07.851Z,79.10
2018-09-29T23:52:36.768Z,81.80
2018-09-29T23:55:05.675Z,77.83
2018-09-29T23:57:34.613Z,82.30
